Cathma — PJTL — position and weather

sailwx.info

Track history (hours):
 
Tides and Currents Weather Stations Pressure Air Temp Water Temp Dewpoint Dewpoint Depression Visibility Wind Speed Wind Dir Waves Ship Positions

Cathma

Last reported at 2015-Mar-22 01:27 UTC. Time now 2015-Mar-28 18:50 UTC.
Position N 54°48' E 019°37'.

Length 111 m; draft 5.4 m.

Type: Ship. MMSI: 306832000.

Date/timePositionNaut miles runAvg speedWind from/ knotsBaromVisibWave heightAir tempDewpointWater temp
2015-Mar-22 01:27N 54°48' E 019°37'7 7.7
2015-Mar-22 00:32N 54°42' E 019°45'6 0.2
2015-Mar-20 17:24N 54°38' E 019°53'3 4.1
2015-Mar-20 16:33N 54°39' E 019°47'0 0.0
2015-Mar-20 13:20N 54°39' E 019°47'3 3.7
2015-Mar-20 12:33N 54°41' E 019°43'6 6.0
2015-Mar-20 11:32N 54°45' E 019°35'7 6.6
2015-Mar-20 10:33N 54°48' E 019°25'7 6.9
2015-Mar-20 09:33N 54°50' E 019°14'8 7.7
2015-Mar-20 08:33N 54°51' E 019°01'7 7.0
2015-Mar-20 07:34N 54°52' E 018°48'9 9.1
2015-Mar-20 06:33N 54°53' E 018°33'10 9.4
2015-Mar-20 05:32N 54°54' E 018°16'9 9.4
2015-Mar-20 04:33N 54°54' E 018°00'9 9.3
2015-Mar-20 03:33N 54°54' E 017°44'10 9.3
2015-Mar-20 02:28N 54°53' E 017°27'78 9.4
2015-Mar-19 18:12N 54°51' E 015°12'6 9.7
2015-Mar-19 17:33N 54°51' E 015°01'10 9.8
2015-Mar-19 16:33N 54°52' E 014°44'10 9.7
2015-Mar-19 15:33N 54°53' E 014°27'10 9.8
2015-Mar-19 14:33N 54°53' E 014°10'10 9.7
2015-Mar-19 13:33N 54°54' E 013°53'9 9.4
2015-Mar-19 12:33N 54°53' E 013°37'11 9.6
2015-Mar-19 11:25N 54°51' E 013°19'8 9.5
2015-Mar-19 10:33N 54°49' E 013°05'10 9.5
2015-Mar-19 09:33N 54°43' E 012°51'10 9.6
2015-Mar-19 08:33N 54°38' E 012°37'9 9.3
2015-Mar-19 07:33N 54°33' E 012°23'9 8.8
2015-Mar-19 06:33N 54°27' E 012°14'9 9.0
2015-Mar-19 05:33N 54°24' E 011°59'9 9.4
2015-Mar-19 04:33N 54°26' E 011°43'9 9.3
2015-Mar-19 03:33N 54°30' E 011°28'8 8.3
2015-Mar-19 02:33N 54°34' E 011°16'8 7.8
2015-Mar-19 01:33N 54°35' E 011°02'9 8.8
2015-Mar-19 00:33N 54°34' E 010°47'9 9.3
2015-Mar-18 23:33N 54°32' E 010°32'9 9.0
2015-Mar-18 22:34N 54°29' E 010°17'9 8.6
2015-Mar-18 21:33N 54°22' E 010°09'0 0.4
2015-Mar-18 20:33N 54°22' E 010°08'7 6.9
2015-Mar-18 19:33N 54°20' E 009°56'7 7.4
2015-Mar-18 18:33N 54°20' E 009°44'10 7.8
2015-Mar-18 17:15N 54°12' E 009°33'4 4.5
2015-Mar-18 16:17N 54°10' E 009°26'7 6.9
2015-Mar-18 15:15N 54°04' E 009°19'6 8.4
2015-Mar-18 14:33N 53°59' E 009°16'7 6.9
2015-Mar-18 13:33N 53°54' E 009°09'2 1.6
2015-Mar-18 12:33N 53°53' E 009°06'1010.2
2015-Mar-18 11:33N 53°50' E 008°50'1312.4
2015-Mar-18 10:33N 53°58' E 008°33'1312.6
2015-Mar-18 09:33N 53°59' E 008°12'1111.0
2015-Mar-18 08:33N 53°57' E 007°53'1111.4
2015-Mar-18 07:33N 53°55' E 007°34'1211.6
2015-Mar-18 06:33N 53°52' E 007°15'4511.3
2015-Mar-18 02:33N 53°40' E 006°01'1010.1
2015-Mar-18 01:33N 53°37' E 005°45'10 9.6
2015-Mar-18 00:33N 53°34' E 005°30'9 9.2
2015-Mar-17 23:33N 53°31' E 005°15'9 9.1
2015-Mar-17 22:33N 53°28' E 005°00'9 9.2
2015-Mar-17 21:33N 53°24' E 004°47'9 8.6
2015-Mar-17 20:33N 53°17' E 004°38'12 9.2
2015-Mar-17 19:14N 53°07' E 004°28'19 9.3
2015-Mar-17 17:13N 52°50' E 004°13'2210.3
2015-Mar-17 15:05N 52°34' E 003°49'810.6
2015-Mar-17 14:21N 52°28' E 003°41'910.2
2015-Mar-17 13:31N 52°21' E 003°33'3210.7
2015-Mar-17 10:33N 51°51' E 003°20'5 5.4
2015-Mar-17 09:32N 51°45' E 003°18'0 0.0
2015-Mar-17 08:17N 51°45' E 003°18'0 0.0
2015-Mar-17 06:25N 51°45' E 003°18'0 0.0
2015-Mar-17 05:13N 51°45' E 003°18'0 0.0
2015-Mar-17 04:27N 51°45' E 003°18'0 0.0
2015-Mar-17 02:29N 51°45' E 003°18'0 0.0
2015-Mar-17 01:32N 51°45' E 003°18'0 0.0
2015-Mar-16 23:07N 51°45' E 003°18'0 0.0
2015-Mar-16 22:28N 51°45' E 003°18'0 0.0
2015-Mar-16 16:31N 51°45' E 003°18'0 0.0
2015-Mar-16 14:06N 51°45' E 003°18'0 0.1
2015-Mar-16 13:12N 51°45' E 003°18'0 0.0
2015-Mar-16 12:29N 51°45' E 003°18'0 0.0
2015-Mar-16 11:29N 51°45' E 003°18'0 0.1
2015-Mar-16 10:32N 51°45' E 003°18'0 0.0
2015-Mar-15 22:17N 51°45' E 003°18'0 0.0
2015-Mar-15 07:20N 51°45' E 003°18'0 0.0
2015-Mar-15 06:31N 51°45' E 003°18'0 0.0
2015-Mar-15 05:31N 51°45' E 003°18'0 0.0
2015-Mar-15 04:34N 51°45' E 003°18'0 0.0
2015-Mar-15 01:29N 51°45' E 003°18'0 0.0
2015-Mar-14 23:25N 51°45' E 003°18'0 0.0
2015-Mar-14 22:19N 51°45' E 003°18'0 0.0
2015-Mar-14 21:09N 51°45' E 003°18'0 0.0
2015-Mar-14 20:06N 51°45' E 003°18'0 0.0
2015-Mar-14 19:08N 51°45' E 003°18'0 0.0
2015-Mar-14 18:29N 51°45' E 003°18'0 0.0
2015-Mar-14 17:32N 51°45' E 003°18'0 0.0
2015-Mar-14 07:15N 51°45' E 003°18'0 0.0
2015-Mar-13 21:14N 51°45' E 003°18'0 0.1
2015-Mar-13 20:16N 51°45' E 003°18'0 0.0
2015-Mar-13 18:25N 51°45' E 003°18'0 0.0
2015-Mar-13 15:24N 51°45' E 003°18'0 0.0
2015-Mar-13 14:32N 51°45' E 003°18'0 0.0
2015-Mar-13 11:28N 51°45' E 003°18'0 0.0
2015-Mar-13 10:30N 51°45' E 003°18'0 0.0
2015-Mar-13 09:30N 51°45' E 003°18'0 0.0
2015-Mar-13 08:30N 51°45' E 003°18'0 0.0
2015-Mar-13 07:29N 51°45' E 003°18'0 0.0
2015-Mar-13 06:32N 51°45' E 003°18'0 0.0
2015-Mar-13 05:31N 51°45' E 003°18'0 0.0
2015-Mar-13 04:28N 51°45' E 003°18'0 0.0
2015-Mar-13 03:24N 51°45' E 003°18'0 0.0
2015-Mar-13 02:33N 51°45' E 003°18'0 0.0
2015-Mar-13 01:30N 51°45' E 003°18'0 0.0
2015-Mar-13 00:29N 51°45' E 003°18'0 0.0
2015-Mar-12 22:10N 51°45' E 003°18'0 0.0
2015-Mar-12 20:27N 51°45' E 003°18'0 0.0
2015-Mar-12 11:32N 51°45' E 003°18'0 0.0
2015-Mar-12 10:20N 51°45' E 003°18'0 0.0
2015-Mar-12 09:26N 51°45' E 003°18'2 2.4
2015-Mar-12 08:32N 51°46' E 003°15'9 9.5
2015-Mar-12 07:33N 51°46' E 003°00'10 9.8
2015-Mar-12 06:33N 51°46' E 002°44'1110.1
2015-Mar-12 05:28N 51°40' E 002°30'1011.2
2015-Mar-12 04:33N 51°32' E 002°18'1111.2
2015-Mar-12 03:33N 51°24' E 002°06'1111.3
2015-Mar-12 02:33N 51°16' E 001°53'1111.2
2015-Mar-12 01:33N 51°07' E 001°42'  
Track history (hours):
 
Tides and Currents Weather Stations Pressure Air Temp Water Temp Dewpoint Dewpoint Depression Visibility Wind Speed Wind Dir Waves Ship Positions

Cathma

Last reported at 2015-Mar-22 01:27 UTC. Time now 2015-Mar-28 18:50 UTC.
Position N 54°48' E 019°37'.

Length 111 m; draft 5.4 m.

Type: Ship. MMSI: 306832000.

Date/timePositionNaut miles runAvg speedWind from/ knotsBaromVisibWave heightAir tempDewpointWater temp
2015-Mar-22 01:27N 54°48' E 019°37'7 7.7
2015-Mar-22 00:32N 54°42' E 019°45'6 0.2
2015-Mar-20 17:24N 54°38' E 019°53'3 4.1
2015-Mar-20 16:33N 54°39' E 019°47'0 0.0
2015-Mar-20 13:20N 54°39' E 019°47'3 3.7
2015-Mar-20 12:33N 54°41' E 019°43'6 6.0
2015-Mar-20 11:32N 54°45' E 019°35'7 6.6
2015-Mar-20 10:33N 54°48' E 019°25'7 6.9
2015-Mar-20 09:33N 54°50' E 019°14'8 7.7
2015-Mar-20 08:33N 54°51' E 019°01'7 7.0
2015-Mar-20 07:34N 54°52' E 018°48'9 9.1
2015-Mar-20 06:33N 54°53' E 018°33'10 9.4
2015-Mar-20 05:32N 54°54' E 018°16'9 9.4
2015-Mar-20 04:33N 54°54' E 018°00'9 9.3
2015-Mar-20 03:33N 54°54' E 017°44'10 9.3
2015-Mar-20 02:28N 54°53' E 017°27'78 9.4
2015-Mar-19 18:12N 54°51' E 015°12'6 9.7
2015-Mar-19 17:33N 54°51' E 015°01'10 9.8
2015-Mar-19 16:33N 54°52' E 014°44'10 9.7
2015-Mar-19 15:33N 54°53' E 014°27'10 9.8
2015-Mar-19 14:33N 54°53' E 014°10'10 9.7
2015-Mar-19 13:33N 54°54' E 013°53'9 9.4
2015-Mar-19 12:33N 54°53' E 013°37'11 9.6
2015-Mar-19 11:25N 54°51' E 013°19'8 9.5
2015-Mar-19 10:33N 54°49' E 013°05'10 9.5
2015-Mar-19 09:33N 54°43' E 012°51'10 9.6
2015-Mar-19 08:33N 54°38' E 012°37'9 9.3
2015-Mar-19 07:33N 54°33' E 012°23'9 8.8
2015-Mar-19 06:33N 54°27' E 012°14'9 9.0
2015-Mar-19 05:33N 54°24' E 011°59'9 9.4
2015-Mar-19 04:33N 54°26' E 011°43'9 9.3
2015-Mar-19 03:33N 54°30' E 011°28'8 8.3
2015-Mar-19 02:33N 54°34' E 011°16'8 7.8
2015-Mar-19 01:33N 54°35' E 011°02'9 8.8
2015-Mar-19 00:33N 54°34' E 010°47'9 9.3
2015-Mar-18 23:33N 54°32' E 010°32'9 9.0
2015-Mar-18 22:34N 54°29' E 010°17'9 8.6
2015-Mar-18 21:33N 54°22' E 010°09'0 0.4
2015-Mar-18 20:33N 54°22' E 010°08'7 6.9
2015-Mar-18 19:33N 54°20' E 009°56'7 7.4
2015-Mar-18 18:33N 54°20' E 009°44'10 7.8
2015-Mar-18 17:15N 54°12' E 009°33'4 4.5
2015-Mar-18 16:17N 54°10' E 009°26'7 6.9
2015-Mar-18 15:15N 54°04' E 009°19'6 8.4
2015-Mar-18 14:33N 53°59' E 009°16'7 6.9
2015-Mar-18 13:33N 53°54' E 009°09'2 1.6
2015-Mar-18 12:33N 53°53' E 009°06'1010.2
2015-Mar-18 11:33N 53°50' E 008°50'1312.4
2015-Mar-18 10:33N 53°58' E 008°33'1312.6
2015-Mar-18 09:33N 53°59' E 008°12'1111.0
2015-Mar-18 08:33N 53°57' E 007°53'1111.4
2015-Mar-18 07:33N 53°55' E 007°34'1211.6
2015-Mar-18 06:33N 53°52' E 007°15'4511.3
2015-Mar-18 02:33N 53°40' E 006°01'1010.1
2015-Mar-18 01:33N 53°37' E 005°45'10 9.6
2015-Mar-18 00:33N 53°34' E 005°30'9 9.2
2015-Mar-17 23:33N 53°31' E 005°15'9 9.1
2015-Mar-17 22:33N 53°28' E 005°00'9 9.2
2015-Mar-17 21:33N 53°24' E 004°47'9 8.6
2015-Mar-17 20:33N 53°17' E 004°38'12 9.2
2015-Mar-17 19:14N 53°07' E 004°28'19 9.3
2015-Mar-17 17:13N 52°50' E 004°13'2210.3
2015-Mar-17 15:05N 52°34' E 003°49'810.6
2015-Mar-17 14:21N 52°28' E 003°41'910.2
2015-Mar-17 13:31N 52°21' E 003°33'3210.7
2015-Mar-17 10:33N 51°51' E 003°20'5 5.4
2015-Mar-17 09:32N 51°45' E 003°18'0 0.0
2015-Mar-17 08:17N 51°45' E 003°18'0 0.0
2015-Mar-17 06:25N 51°45' E 003°18'0 0.0
2015-Mar-17 05:13N 51°45' E 003°18'0 0.0
2015-Mar-17 04:27N 51°45' E 003°18'0 0.0
2015-Mar-17 02:29N 51°45' E 003°18'0 0.0
2015-Mar-17 01:32N 51°45' E 003°18'0 0.0
2015-Mar-16 23:07N 51°45' E 003°18'0 0.0
2015-Mar-16 22:28N 51°45' E 003°18'0 0.0
2015-Mar-16 16:31N 51°45' E 003°18'0 0.0
2015-Mar-16 14:06N 51°45' E 003°18'0 0.1
2015-Mar-16 13:12N 51°45' E 003°18'0 0.0
2015-Mar-16 12:29N 51°45' E 003°18'0 0.0
2015-Mar-16 11:29N 51°45' E 003°18'0 0.1
2015-Mar-16 10:32N 51°45' E 003°18'0 0.0
2015-Mar-15 22:17N 51°45' E 003°18'0 0.0
2015-Mar-15 07:20N 51°45' E 003°18'0 0.0
2015-Mar-15 06:31N 51°45' E 003°18'0 0.0
2015-Mar-15 05:31N 51°45' E 003°18'0 0.0
2015-Mar-15 04:34N 51°45' E 003°18'0 0.0
2015-Mar-15 01:29N 51°45' E 003°18'0 0.0
2015-Mar-14 23:25N 51°45' E 003°18'0 0.0
2015-Mar-14 22:19N 51°45' E 003°18'0 0.0
2015-Mar-14 21:09N 51°45' E 003°18'0 0.0
2015-Mar-14 20:06N 51°45' E 003°18'0 0.0
2015-Mar-14 19:08N 51°45' E 003°18'0 0.0
2015-Mar-14 18:29N 51°45' E 003°18'0 0.0
2015-Mar-14 17:32N 51°45' E 003°18'0 0.0
2015-Mar-14 07:15N 51°45' E 003°18'0 0.0
2015-Mar-13 21:14N 51°45' E 003°18'0 0.1
2015-Mar-13 20:16N 51°45' E 003°18'0 0.0
2015-Mar-13 18:25N 51°45' E 003°18'0 0.0
2015-Mar-13 15:24N 51°45' E 003°18'0 0.0
2015-Mar-13 14:32N 51°45' E 003°18'0 0.0
2015-Mar-13 11:28N 51°45' E 003°18'0 0.0
2015-Mar-13 10:30N 51°45' E 003°18'0 0.0
2015-Mar-13 09:30N 51°45' E 003°18'0 0.0
2015-Mar-13 08:30N 51°45' E 003°18'0 0.0
2015-Mar-13 07:29N 51°45' E 003°18'0 0.0
2015-Mar-13 06:32N 51°45' E 003°18'0 0.0
2015-Mar-13 05:31N 51°45' E 003°18'0 0.0
2015-Mar-13 04:28N 51°45' E 003°18'0 0.0
2015-Mar-13 03:24N 51°45' E 003°18'0 0.0
2015-Mar-13 02:33N 51°45' E 003°18'0 0.0
2015-Mar-13 01:30N 51°45' E 003°18'0 0.0
2015-Mar-13 00:29N 51°45' E 003°18'0 0.0
2015-Mar-12 22:10N 51°45' E 003°18'0 0.0
2015-Mar-12 20:27N 51°45' E 003°18'0 0.0
2015-Mar-12 11:32N 51°45' E 003°18'0 0.0
2015-Mar-12 10:20N 51°45' E 003°18'0 0.0
2015-Mar-12 09:26N 51°45' E 003°18'2 2.4
2015-Mar-12 08:32N 51°46' E 003°15'9 9.5
2015-Mar-12 07:33N 51°46' E 003°00'10 9.8
2015-Mar-12 06:33N 51°46' E 002°44'1110.1
2015-Mar-12 05:28N 51°40' E 002°30'1011.2
2015-Mar-12 04:33N 51°32' E 002°18'1111.2
2015-Mar-12 03:33N 51°24' E 002°06'1111.3
2015-Mar-12 02:33N 51°16' E 001°53'1111.2
2015-Mar-12 01:33N 51°07' E 001°42'  

Dump ship's entire track history